Terminal Aerodrome Forecast
Issued by NWS

Home | Current Version | Previous Version | Text Only | Print | Product List | Glossary On
Versions: 1 2 3 4 5 6 7 8 9 10 11 12
836
FTPA31 PHFO 291137
TAFHMK
TAF
PHMK 291137Z 2912/3012 VRB03KT P6SM SCT025
     FM292300 33008KT P6SM SCT025 SCT040
     FM300500 VRB03KT P6SM SCT025 SCT040=

USA.gov is the U.S. government's official web portal to all federal, state and local government web resources and services.